sensor_id;sensor_type;location;lat;lon;timestamp;P1;durP1;ratioP1;P2;durP2;ratioP2
21754;SDS011;11039;50.028;19.938;2023-02-03T00:00:03;7.90;;;3.92;;
21754;SDS011;11039;50.028;19.938;2023-02-03T00:02:30;8.02;;;3.85;;
21754;SDS011;11039;50.028;19.938;2023-02-03T00:04:56;6.88;;;3.92;;
21754;SDS011;11039;50.028;19.938;2023-02-03T00:07:22;6.32;;;3.65;;
21754;SDS011;11039;50.028;19.938;2023-02-03T00:09:48;7.00;;;3.60;;
21754;SDS011;11039;50.028;19.938;2023-02-03T00:12:14;7.78;;;3.50;;
21754;SDS011;11039;50.028;19.938;2023-02-03T00:14:41;6.55;;;3.50;;
21754;SDS011;11039;50.028;19.938;2023-02-03T00:17:07;8.75;;;3.63;;
21754;SDS011;11039;50.028;19.938;2023-02-03T00:19:33;7.03;;;3.35;;
21754;SDS011;11039;50.028;19.938;2023-02-03T00:21:59;7.30;;;3.75;;
21754;SDS011;11039;50.028;19.938;2023-02-03T00:24:25;7.00;;;3.97;;
21754;SDS011;11039;50.028;19.938;2023-02-03T00:26:51;5.88;;;3.22;;
21754;SDS011;11039;50.028;19.938;2023-02-03T00:29:17;6.95;;;3.50;;
21754;SDS011;11039;50.028;19.938;2023-02-03T00:31:45;6.88;;;3.38;;
21754;SDS011;11039;50.028;19.938;2023-02-03T00:34:11;6.85;;;3.50;;
21754;SDS011;11039;50.028;19.938;2023-02-03T00:36:37;6.80;;;3.80;;
21754;SDS011;11039;50.028;19.938;2023-02-03T00:39:03;5.75;;;3.35;;
21754;SDS011;11039;50.028;19.938;2023-02-03T00:41:29;7.15;;;3.17;;
21754;SDS011;11039;50.028;19.938;2023-02-03T00:43:56;6.97;;;3.55;;
21754;SDS011;11039;50.028;19.938;2023-02-03T00:46:22;6.68;;;3.60;;
21754;SDS011;11039;50.028;19.938;2023-02-03T00:48:48;6.45;;;3.15;;
21754;SDS011;11039;50.028;19.938;2023-02-03T00:51:14;7.45;;;3.38;;
21754;SDS011;11039;50.028;19.938;2023-02-03T00:53:40;6.05;;;2.95;;
21754;SDS011;11039;50.028;19.938;2023-02-03T00:56:06;5.28;;;3.13;;
21754;SDS011;11039;50.028;19.938;2023-02-03T00:58:37;7.00;;;3.50;;
21754;SDS011;11039;50.028;19.938;2023-02-03T01:01:03;6.65;;;3.58;;
21754;SDS011;11039;50.028;19.938;2023-02-03T01:03:29;5.97;;;2.83;;
21754;SDS011;11039;50.028;19.938;2023-02-03T01:05:56;5.72;;;3.28;;
21754;SDS011;11039;50.028;19.938;2023-02-03T01:08:22;5.60;;;2.97;;
21754;SDS011;11039;50.028;19.938;2023-02-03T01:10:48;4.85;;;2.75;;
21754;SDS011;11039;50.028;19.938;2023-02-03T01:13:14;6.22;;;3.33;;
21754;SDS011;11039;50.028;19.938;2023-02-03T01:15:46;5.78;;;3.20;;
21754;SDS011;11039;50.028;19.938;2023-02-03T01:18:12;3.83;;;3.03;;
21754;SDS011;11039;50.028;19.938;2023-02-03T01:20:38;5.03;;;3.05;;
21754;SDS011;11039;50.028;19.938;2023-02-03T01:23:04;4.57;;;2.90;;
21754;SDS011;11039;50.028;19.938;2023-02-03T01:25:30;5.20;;;3.10;;
21754;SDS011;11039;50.028;19.938;2023-02-03T01:27:56;4.90;;;3.13;;
21754;SDS011;11039;50.028;19.938;2023-02-03T01:30:23;5.90;;;3.25;;
21754;SDS011;11039;50.028;19.938;2023-02-03T01:32:49;4.53;;;2.83;;
21754;SDS011;11039;50.028;19.938;2023-02-03T01:35:15;4.05;;;2.75;;
21754;SDS011;11039;50.028;19.938;2023-02-03T01:37:41;5.25;;;2.88;;
21754;SDS011;11039;50.028;19.938;2023-02-03T01:40:07;4.22;;;2.75;;
21754;SDS011;11039;50.028;19.938;2023-02-03T01:42:33;4.47;;;3.25;;
21754;SDS011;11039;50.028;19.938;2023-02-03T01:44:59;5.13;;;3.63;;
21754;SDS011;11039;50.028;19.938;2023-02-03T01:47:30;4.57;;;3.13;;
21754;SDS011;11039;50.028;19.938;2023-02-03T01:52:43;6.60;;;3.47;;
21754;SDS011;11039;50.028;19.938;2023-02-03T01:55:11;4.18;;;2.72;;
21754;SDS011;11039;50.028;19.938;2023-02-03T01:57:45;4.43;;;2.85;;
21754;SDS011;11039;50.028;19.938;2023-02-03T02:00:12;4.82;;;2.95;;
21754;SDS011;11039;50.028;19.938;2023-02-03T02:02:39;4.68;;;3.10;;
21754;SDS011;11039;50.028;19.938;2023-02-03T02:05:12;5.70;;;3.13;;
21754;SDS011;11039;50.028;19.938;2023-02-03T02:07:39;5.00;;;2.63;;
21754;SDS011;11039;50.028;19.938;2023-02-03T02:10:06;5.03;;;3.00;;
21754;SDS011;11039;50.028;19.938;2023-02-03T02:12:32;4.68;;;3.10;;
21754;SDS011;11039;50.028;19.938;2023-02-03T02:14:58;5.25;;;3.22;;
21754;SDS011;11039;50.028;19.938;2023-02-03T02:35:43;4.32;;;2.88;;
21754;SDS011;11039;50.028;19.938;2023-02-03T02:43:25;4.75;;;2.67;;
21754;SDS011;11039;50.028;19.938;2023-02-03T02:45:55;4.80;;;2.58;;
21754;SDS011;11039;50.028;19.938;2023-02-03T02:48:26;4.32;;;2.60;;
21754;SDS011;11039;50.028;19.938;2023-02-03T02:50:55;3.78;;;2.50;;
21754;SDS011;11039;50.028;19.938;2023-02-03T02:53:23;4.03;;;2.65;;
21754;SDS011;11039;50.028;19.938;2023-02-03T02:55:50;3.88;;;2.50;;
21754;SDS011;11039;50.028;19.938;2023-02-03T02:58:17;3.60;;;2.70;;
21754;SDS011;11039;50.028;19.938;2023-02-03T03:00:44;5.70;;;3.15;;
21754;SDS011;11039;50.028;19.938;2023-02-03T03:05:39;4.22;;;2.55;;
21754;SDS011;11039;50.028;19.938;2023-02-03T03:08:06;4.65;;;2.67;;
21754;SDS011;11039;50.028;19.938;2023-02-03T03:10:34;4.15;;;2.63;;
21754;SDS011;11039;50.028;19.938;2023-02-03T03:13:03;3.80;;;2.50;;
21754;SDS011;11039;50.028;19.938;2023-02-03T03:15:31;3.92;;;2.72;;
21754;SDS011;11039;50.028;19.938;2023-02-03T03:20:28;4.97;;;3.30;;
21754;SDS011;11039;50.028;19.938;2023-02-03T03:23:05;4.60;;;2.67;;
21754;SDS011;11039;50.028;19.938;2023-02-03T03:25:38;4.57;;;2.80;;
21754;SDS011;11039;50.028;19.938;2023-02-03T03:28:07;4.40;;;2.85;;
21754;SDS011;11039;50.028;19.938;2023-02-03T03:30:35;4.28;;;2.90;;
21754;SDS011;11039;50.028;19.938;2023-02-03T03:33:02;3.35;;;2.33;;
21754;SDS011;11039;50.028;19.938;2023-02-03T03:35:40;3.75;;;2.75;;
21754;SDS011;11039;50.028;19.938;2023-02-03T03:38:10;3.35;;;2.30;;
21754;SDS011;11039;50.028;19.938;2023-02-03T03:40:38;6.45;;;2.80;;
21754;SDS011;11039;50.028;19.938;2023-02-03T03:43:11;5.82;;;2.53;;
21754;SDS011;11039;50.028;19.938;2023-02-03T03:48:21;4.07;;;2.70;;
21754;SDS011;11039;50.028;19.938;2023-02-03T03:50:52;4.68;;;2.80;;
21754;SDS011;11039;50.028;19.938;2023-02-03T03:53:20;3.75;;;2.80;;
21754;SDS011;11039;50.028;19.938;2023-02-03T03:55:48;4.32;;;2.85;;
21754;SDS011;11039;50.028;19.938;2023-02-03T03:58:25;3.95;;;2.50;;
21754;SDS011;11039;50.028;19.938;2023-02-03T04:00:53;4.18;;;2.58;;
21754;SDS011;11039;50.028;19.938;2023-02-03T04:03:21;3.63;;;2.78;;
21754;SDS011;11039;50.028;19.938;2023-02-03T04:05:48;3.78;;;2.70;;
21754;SDS011;11039;50.028;19.938;2023-02-03T04:08:14;4.20;;;2.85;;
21754;SDS011;11039;50.028;19.938;2023-02-03T04:10:41;5.05;;;2.65;;
21754;SDS011;11039;50.028;19.938;2023-02-03T04:13:08;4.15;;;2.35;;
21754;SDS011;11039;50.028;19.938;2023-02-03T04:15:34;3.72;;;2.58;;
21754;SDS011;11039;50.028;19.938;2023-02-03T04:18:00;3.88;;;2.58;;
21754;SDS011;11039;50.028;19.938;2023-02-03T04:20:27;3.10;;;2.47;;
21754;SDS011;11039;50.028;19.938;2023-02-03T04:22:53;4.10;;;2.30;;
21754;SDS011;11039;50.028;19.938;2023-02-03T04:25:19;4.07;;;2.60;;
21754;SDS011;11039;50.028;19.938;2023-02-03T04:27:45;4.18;;;2.55;;
21754;SDS011;11039;50.028;19.938;2023-02-03T04:30:11;4.05;;;2.70;;
21754;SDS011;11039;50.028;19.938;2023-02-03T04:32:38;3.70;;;2.42;;
21754;SDS011;11039;50.028;19.938;2023-02-03T04:35:06;4.22;;;2.60;;
21754;SDS011;11039;50.028;19.938;2023-02-03T04:37:32;4.03;;;2.47;;
21754;SDS011;11039;50.028;19.938;2023-02-03T04:39:58;3.53;;;2.45;;
21754;SDS011;11039;50.028;19.938;2023-02-03T04:42:24;3.75;;;2.55;;
21754;SDS011;11039;50.028;19.938;2023-02-03T04:44:51;4.32;;;2.63;;
21754;SDS011;11039;50.028;19.938;2023-02-03T04:47:17;3.65;;;2.33;;
21754;SDS011;11039;50.028;19.938;2023-02-03T04:49:43;4.05;;;2.53;;
21754;SDS011;11039;50.028;19.938;2023-02-03T04:52:09;3.70;;;2.63;;
21754;SDS011;11039;50.028;19.938;2023-02-03T04:54:36;4.10;;;2.17;;
21754;SDS011;11039;50.028;19.938;2023-02-03T04:57:02;4.15;;;2.40;;
21754;SDS011;11039;50.028;19.938;2023-02-03T04:59:28;3.75;;;2.50;;
21754;SDS011;11039;50.028;19.938;2023-02-03T05:01:54;3.95;;;2.60;;
21754;SDS011;11039;50.028;19.938;2023-02-03T05:04:20;3.95;;;2.50;;
21754;SDS011;11039;50.028;19.938;2023-02-03T05:06:46;3.80;;;2.60;;
21754;SDS011;11039;50.028;19.938;2023-02-03T05:09:12;3.63;;;2.50;;
21754;SDS011;11039;50.028;19.938;2023-02-03T05:11:38;3.70;;;2.20;;
21754;SDS011;11039;50.028;19.938;2023-02-03T05:14:04;4.00;;;2.38;;
21754;SDS011;11039;50.028;19.938;2023-02-03T05:16:30;4.22;;;2.90;;
21754;SDS011;11039;50.028;19.938;2023-02-03T05:18:56;4.35;;;2.90;;
21754;SDS011;11039;50.028;19.938;2023-02-03T05:21:22;3.33;;;2.40;;
21754;SDS011;11039;50.028;19.938;2023-02-03T05:23:48;3.30;;;2.65;;
21754;SDS011;11039;50.028;19.938;2023-02-03T05:26:15;3.30;;;2.22;;
21754;SDS011;11039;50.028;19.938;2023-02-03T05:28:41;4.13;;;2.53;;
21754;SDS011;11039;50.028;19.938;2023-02-03T05:31:07;3.97;;;2.40;;
21754;SDS011;11039;50.028;19.938;2023-02-03T05:33:33;4.20;;;2.67;;
21754;SDS011;11039;50.028;19.938;2023-02-03T05:35:59;4.15;;;2.20;;
21754;SDS011;11039;50.028;19.938;2023-02-03T05:38:25;3.88;;;2.42;;
21754;SDS011;11039;50.028;19.938;2023-02-03T05:40:51;3.78;;;2.45;;
21754;SDS011;11039;50.028;19.938;2023-02-03T05:43:37;4.78;;;2.50;;
21754;SDS011;11039;50.028;19.938;2023-02-03T05:46:03;3.83;;;2.40;;
21754;SDS011;11039;50.028;19.938;2023-02-03T05:48:30;4.43;;;2.63;;
21754;SDS011;11039;50.028;19.938;2023-02-03T05:50:56;3.75;;;2.67;;
21754;SDS011;11039;50.028;19.938;2023-02-03T05:53:22;4.40;;;2.45;;
21754;SDS011;11039;50.028;19.938;2023-02-03T05:55:48;4.13;;;2.78;;
21754;SDS011;11039;50.028;19.938;2023-02-03T05:58:14;4.57;;;2.70;;
21754;SDS011;11039;50.028;19.938;2023-02-03T06:00:40;3.90;;;2.50;;
21754;SDS011;11039;50.028;19.938;2023-02-03T06:03:06;3.83;;;2.60;;
21754;SDS011;11039;50.028;19.938;2023-02-03T06:05:33;4.45;;;2.55;;
21754;SDS011;11039;50.028;19.938;2023-02-03T06:07:59;3.53;;;2.50;;
21754;SDS011;11039;50.028;19.938;2023-02-03T06:10:25;3.65;;;2.42;;
21754;SDS011;11039;50.028;19.938;2023-02-03T06:12:52;3.30;;;2.28;;
21754;SDS011;11039;50.028;19.938;2023-02-03T06:15:18;4.68;;;2.60;;
21754;SDS011;11039;50.028;19.938;2023-02-03T06:17:45;4.07;;;2.60;;
21754;SDS011;11039;50.028;19.938;2023-02-03T06:20:12;4.18;;;2.50;;
21754;SDS011;11039;50.028;19.938;2023-02-03T06:22:39;3.65;;;2.42;;
21754;SDS011;11039;50.028;19.938;2023-02-03T06:25:05;4.35;;;2.40;;
21754;SDS011;11039;50.028;19.938;2023-02-03T06:27:31;4.47;;;2.80;;
21754;SDS011;11039;50.028;19.938;2023-02-03T06:29:57;5.18;;;2.90;;
21754;SDS011;11039;50.028;19.938;2023-02-03T06:32:23;4.65;;;2.90;;
21754;SDS011;11039;50.028;19.938;2023-02-03T06:34:49;3.38;;;2.50;;
21754;SDS011;11039;50.028;19.938;2023-02-03T06:37:16;4.25;;;2.65;;
21754;SDS011;11039;50.028;19.938;2023-02-03T06:39:42;4.43;;;2.70;;
21754;SDS011;11039;50.028;19.938;2023-02-03T06:42:08;4.20;;;2.67;;
21754;SDS011;11039;50.028;19.938;2023-02-03T06:44:34;4.28;;;2.80;;
21754;SDS011;11039;50.028;19.938;2023-02-03T06:47:00;4.10;;;2.50;;
21754;SDS011;11039;50.028;19.938;2023-02-03T06:49:27;6.90;;;2.75;;
21754;SDS011;11039;50.028;19.938;2023-02-03T06:51:53;3.30;;;2.63;;
21754;SDS011;11039;50.028;19.938;2023-02-03T06:54:20;2.80;;;2.10;;
21754;SDS011;11039;50.028;19.938;2023-02-03T06:56:46;3.75;;;2.50;;
21754;SDS011;11039;50.028;19.938;2023-02-03T06:59:12;3.55;;;2.33;;
21754;SDS011;11039;50.028;19.938;2023-02-03T07:01:38;3.85;;;2.35;;
21754;SDS011;11039;50.028;19.938;2023-02-03T07:04:04;4.53;;;2.42;;
21754;SDS011;11039;50.028;19.938;2023-02-03T07:06:30;4.25;;;2.60;;
21754;SDS011;11039;50.028;19.938;2023-02-03T07:08:58;4.50;;;2.50;;
21754;SDS011;11039;50.028;19.938;2023-02-03T07:11:24;3.58;;;2.50;;
21754;SDS011;11039;50.028;19.938;2023-02-03T07:13:50;3.72;;;2.47;;
21754;SDS011;11039;50.028;19.938;2023-02-03T07:16:16;4.72;;;2.40;;
21754;SDS011;11039;50.028;19.938;2023-02-03T07:18:42;3.28;;;2.40;;
21754;SDS011;11039;50.028;19.938;2023-02-03T07:21:08;8.07;;;2.65;;
21754;SDS011;11039;50.028;19.938;2023-02-03T07:23:34;4.72;;;2.67;;
21754;SDS011;11039;50.028;19.938;2023-02-03T07:26:01;5.40;;;2.20;;
21754;SDS011;11039;50.028;19.938;2023-02-03T07:28:28;4.72;;;3.00;;
21754;SDS011;11039;50.028;19.938;2023-02-03T07:30:55;3.75;;;2.38;;
21754;SDS011;11039;50.028;19.938;2023-02-03T07:33:21;5.13;;;2.70;;
21754;SDS011;11039;50.028;19.938;2023-02-03T07:35:51;5.00;;;2.58;;
21754;SDS011;11039;50.028;19.938;2023-02-03T07:38:17;6.95;;;2.78;;
21754;SDS011;11039;50.028;19.938;2023-02-03T07:40:43;6.43;;;2.65;;
21754;SDS011;11039;50.028;19.938;2023-02-03T07:43:09;7.00;;;2.75;;
21754;SDS011;11039;50.028;19.938;2023-02-03T07:45:35;6.95;;;2.42;;
21754;SDS011;11039;50.028;19.938;2023-02-03T07:48:01;4.13;;;2.65;;
21754;SDS011;11039;50.028;19.938;2023-02-03T07:50:27;4.22;;;2.22;;
21754;SDS011;11039;50.028;19.938;2023-02-03T07:52:53;5.05;;;2.33;;
21754;SDS011;11039;50.028;19.938;2023-02-03T07:55:20;6.18;;;2.78;;
21754;SDS011;11039;50.028;19.938;2023-02-03T07:57:46;5.60;;;2.72;;
21754;SDS011;11039;50.028;19.938;2023-02-03T08:00:12;5.10;;;2.78;;
21754;SDS011;11039;50.028;19.938;2023-02-03T08:02:39;5.55;;;3.30;;
21754;SDS011;11039;50.028;19.938;2023-02-03T08:05:05;6.05;;;2.55;;
21754;SDS011;11039;50.028;19.938;2023-02-03T08:07:32;7.90;;;2.63;;
21754;SDS011;11039;50.028;19.938;2023-02-03T08:09:58;5.68;;;2.65;;
21754;SDS011;11039;50.028;19.938;2023-02-03T08:12:24;4.13;;;2.80;;
21754;SDS011;11039;50.028;19.938;2023-02-03T08:14:50;4.38;;;2.45;;
21754;SDS011;11039;50.028;19.938;2023-02-03T08:17:16;3.92;;;2.60;;
21754;SDS011;11039;50.028;19.938;2023-02-03T08:19:42;9.38;;;2.55;;
21754;SDS011;11039;50.028;19.938;2023-02-03T08:22:08;6.53;;;2.78;;
21754;SDS011;11039;50.028;19.938;2023-02-03T08:24:40;5.20;;;2.63;;
21754;SDS011;11039;50.028;19.938;2023-02-03T08:27:09;6.13;;;2.63;;
21754;SDS011;11039;50.028;19.938;2023-02-03T08:29:35;4.60;;;2.40;;
21754;SDS011;11039;50.028;19.938;2023-02-03T08:32:01;3.15;;;2.20;;
21754;SDS011;11039;50.028;19.938;2023-02-03T08:34:27;4.40;;;2.72;;
21754;SDS011;11039;50.028;19.938;2023-02-03T08:36:54;4.28;;;2.17;;
21754;SDS011;11039;50.028;19.938;2023-02-03T08:39:20;4.40;;;2.60;;
21754;SDS011;11039;50.028;19.938;2023-02-03T08:41:46;3.90;;;2.38;;
21754;SDS011;11039;50.028;19.938;2023-02-03T08:44:12;3.50;;;2.63;;
21754;SDS011;11039;50.028;19.938;2023-02-03T08:46:39;3.75;;;2.38;;
21754;SDS011;11039;50.028;19.938;2023-02-03T08:49:08;3.47;;;2.35;;
21754;SDS011;11039;50.028;19.938;2023-02-03T08:51:34;4.03;;;2.03;;
21754;SDS011;11039;50.028;19.938;2023-02-03T08:54:00;5.50;;;2.50;;
21754;SDS011;11039;50.028;19.938;2023-02-03T08:56:27;3.30;;;2.35;;
21754;SDS011;11039;50.028;19.938;2023-02-03T08:58:53;3.83;;;2.28;;
21754;SDS011;11039;50.028;19.938;2023-02-03T09:01:19;5.05;;;2.53;;
21754;SDS011;11039;50.028;19.938;2023-02-03T09:03:45;3.88;;;2.30;;
21754;SDS011;11039;50.028;19.938;2023-02-03T09:06:11;3.25;;;2.40;;
21754;SDS011;11039;50.028;19.938;2023-02-03T09:08:40;4.60;;;2.45;;
21754;SDS011;11039;50.028;19.938;2023-02-03T09:11:07;4.10;;;2.40;;
21754;SDS011;11039;50.028;19.938;2023-02-03T09:13:33;4.05;;;2.40;;
21754;SDS011;11039;50.028;19.938;2023-02-03T09:15:59;4.25;;;2.20;;
21754;SDS011;11039;50.028;19.938;2023-02-03T09:18:25;3.58;;;2.00;;
21754;SDS011;11039;50.028;19.938;2023-02-03T09:20:51;5.32;;;2.38;;
21754;SDS011;11039;50.028;19.938;2023-02-03T09:23:24;3.50;;;2.17;;
21754;SDS011;11039;50.028;19.938;2023-02-03T09:25:50;5.15;;;2.20;;
21754;SDS011;11039;50.028;19.938;2023-02-03T09:28:16;5.43;;;2.72;;
21754;SDS011;11039;50.028;19.938;2023-02-03T09:30:42;4.13;;;2.35;;
21754;SDS011;11039;50.028;19.938;2023-02-03T09:33:08;3.40;;;2.53;;
21754;SDS011;11039;50.028;19.938;2023-02-03T09:35:34;3.83;;;1.98;;
21754;SDS011;11039;50.028;19.938;2023-02-03T09:38:00;3.47;;;1.90;;
21754;SDS011;11039;50.028;19.938;2023-02-03T09:40:28;4.80;;;2.20;;
21754;SDS011;11039;50.028;19.938;2023-02-03T09:45:28;3.60;;;2.35;;
21754;SDS011;11039;50.028;19.938;2023-02-03T09:47:55;3.30;;;2.20;;
21754;SDS011;11039;50.028;19.938;2023-02-03T09:50:25;6.05;;;2.38;;
21754;SDS011;11039;50.028;19.938;2023-02-03T09:52:52;3.50;;;2.20;;
21754;SDS011;11039;50.028;19.938;2023-02-03T09:55:52;2.78;;;2.03;;
21754;SDS011;11039;50.028;19.938;2023-02-03T09:58:12;3.28;;;1.90;;
21754;SDS011;11039;50.028;19.938;2023-02-03T10:00:41;3.90;;;1.90;;
21754;SDS011;11039;50.028;19.938;2023-02-03T10:08:27;4.30;;;2.10;;
21754;SDS011;11039;50.028;19.938;2023-02-03T10:11:00;3.75;;;2.50;;
21754;SDS011;11039;50.028;19.938;2023-02-03T10:18:59;2.75;;;1.95;;
21754;SDS011;11039;50.028;19.938;2023-02-03T10:21:35;3.75;;;2.08;;
21754;SDS011;11039;50.028;19.938;2023-02-03T10:24:03;3.47;;;2.22;;
21754;SDS011;11039;50.028;19.938;2023-02-03T10:26:29;3.17;;;1.85;;
21754;SDS011;11039;50.028;19.938;2023-02-03T10:28:56;3.60;;;2.17;;
21754;SDS011;11039;50.028;19.938;2023-02-03T10:31:25;9.52;;;7.35;;
21754;SDS011;11039;50.028;19.938;2023-02-03T10:34:13;23.40;;;20.75;;
21754;SDS011;11039;50.028;19.938;2023-02-03T10:36:56;19.30;;;16.50;;
21754;SDS011;11039;50.028;19.938;2023-02-03T10:41:49;17.25;;;14.55;;
21754;SDS011;11039;50.028;19.938;2023-02-03T10:44:15;15.55;;;13.45;;
21754;SDS011;11039;50.028;19.938;2023-02-03T10:46:41;21.38;;;18.45;;
21754;SDS011;11039;50.028;19.938;2023-02-03T10:49:09;32.78;;;27.17;;
21754;SDS011;11039;50.028;19.938;2023-02-03T10:51:40;36.42;;;29.45;;
21754;SDS011;11039;50.028;19.938;2023-02-03T10:56:53;41.50;;;30.63;;
21754;SDS011;11039;50.028;19.938;2023-02-03T10:59:26;41.72;;;32.40;;
21754;SDS011;11039;50.028;19.938;2023-02-03T11:01:53;32.28;;;27.02;;
21754;SDS011;11039;50.028;19.938;2023-02-03T11:04:26;34.00;;;26.60;;
21754;SDS011;11039;50.028;19.938;2023-02-03T11:06:56;35.08;;;27.65;;
21754;SDS011;11039;50.028;19.938;2023-02-03T11:09:36;29.52;;;23.88;;
21754;SDS011;11039;50.028;19.938;2023-02-03T11:14:37;25.52;;;20.73;;
21754;SDS011;11039;50.028;19.938;2023-02-03T11:17:06;28.20;;;20.58;;
21754;SDS011;11039;50.028;19.938;2023-02-03T11:19:33;26.08;;;19.27;;
21754;SDS011;11039;50.028;19.938;2023-02-03T11:22:00;23.92;;;17.63;;
21754;SDS011;11039;50.028;19.938;2023-02-03T11:24:30;21.35;;;16.67;;
21754;SDS011;11039;50.028;19.938;2023-02-03T11:27:04;20.88;;;15.38;;
21754;SDS011;11039;50.028;19.938;2023-02-03T11:29:32;19.08;;;14.35;;
21754;SDS011;11039;50.028;19.938;2023-02-03T11:32:00;19.30;;;14.68;;
21754;SDS011;11039;50.028;19.938;2023-02-03T11:34:30;19.45;;;13.88;;
21754;SDS011;11039;50.028;19.938;2023-02-03T11:36:58;16.45;;;12.82;;
21754;SDS011;11039;50.028;19.938;2023-02-03T11:39:34;17.13;;;12.27;;
21754;SDS011;11039;50.028;19.938;2023-02-03T11:42:01;15.63;;;11.68;;
21754;SDS011;11039;50.028;19.938;2023-02-03T11:44:28;14.48;;;10.57;;
21754;SDS011;11039;50.028;19.938;2023-02-03T11:50:01;12.75;;;10.13;;
21754;SDS011;11039;50.028;19.938;2023-02-03T11:54:48;14.57;;;10.07;;
21754;SDS011;11039;50.028;19.938;2023-02-03T12:10:11;10.82;;;6.97;;
21754;SDS011;11039;50.028;19.938;2023-02-03T12:20:46;8.25;;;6.53;;
21754;SDS011;11039;50.028;19.938;2023-02-03T12:23:41;7.80;;;5.97;;
21754;SDS011;11039;50.028;19.938;2023-02-03T12:28:42;8.05;;;5.63;;
21754;SDS011;11039;50.028;19.938;2023-02-03T12:31:13;6.93;;;5.25;;
21754;SDS011;11039;50.028;19.938;2023-02-03T12:33:41;6.72;;;4.88;;
21754;SDS011;11039;50.028;19.938;2023-02-03T12:36:10;6.28;;;4.70;;
21754;SDS011;11039;50.028;19.938;2023-02-03T12:41:12;6.40;;;4.32;;
21754;SDS011;11039;50.028;19.938;2023-02-03T12:43:39;6.22;;;4.50;;
21754;SDS011;11039;50.028;19.938;2023-02-03T12:51:09;6.50;;;4.53;;
21754;SDS011;11039;50.028;19.938;2023-02-03T12:53:38;6.15;;;4.25;;
21754;SDS011;11039;50.028;19.938;2023-02-03T12:56:10;6.32;;;4.03;;
21754;SDS011;11039;50.028;19.938;2023-02-03T12:58:38;4.85;;;3.85;;
21754;SDS011;11039;50.028;19.938;2023-02-03T13:01:13;6.60;;;4.05;;
21754;SDS011;11039;50.028;19.938;2023-02-03T13:08:35;7.68;;;4.25;;
21754;SDS011;11039;50.028;19.938;2023-02-03T13:13:51;8.50;;;4.13;;
21754;SDS011;11039;50.028;19.938;2023-02-03T13:16:20;6.22;;;4.03;;
21754;SDS011;11039;50.028;19.938;2023-02-03T13:18:49;5.65;;;3.45;;
21754;SDS011;11039;50.028;19.938;2023-02-03T13:21:17;5.47;;;3.75;;
21754;SDS011;11039;50.028;19.938;2023-02-03T13:23:43;6.13;;;3.63;;
21754;SDS011;11039;50.028;19.938;2023-02-03T13:31:10;6.90;;;3.90;;
21754;SDS011;11039;50.028;19.938;2023-02-03T13:41:28;5.03;;;2.80;;
21754;SDS011;11039;50.028;19.938;2023-02-03T13:43:57;3.75;;;2.78;;
21754;SDS011;11039;50.028;19.938;2023-02-03T13:46:25;5.30;;;2.70;;
21754;SDS011;11039;50.028;19.938;2023-02-03T13:48:52;3.85;;;2.72;;
21754;SDS011;11039;50.028;19.938;2023-02-03T13:51:20;4.25;;;3.00;;
21754;SDS011;11039;50.028;19.938;2023-02-03T13:53:47;4.43;;;2.80;;
21754;SDS011;11039;50.028;19.938;2023-02-03T13:56:18;3.55;;;2.65;;
21754;SDS011;11039;50.028;19.938;2023-02-03T13:58:57;4.53;;;3.15;;
21754;SDS011;11039;50.028;19.938;2023-02-03T14:01:28;4.32;;;3.05;;
21754;SDS011;11039;50.028;19.938;2023-02-03T14:03:55;3.40;;;2.35;;
21754;SDS011;11039;50.028;19.938;2023-02-03T14:09:17;5.80;;;3.10;;
21754;SDS011;11039;50.028;19.938;2023-02-03T14:11:44;3.90;;;2.58;;
21754;SDS011;11039;50.028;19.938;2023-02-03T14:19:03;4.32;;;2.92;;
21754;SDS011;11039;50.028;19.938;2023-02-03T14:21:41;5.40;;;2.72;;
21754;SDS011;11039;50.028;19.938;2023-02-03T14:24:09;4.18;;;2.92;;
21754;SDS011;11039;50.028;19.938;2023-02-03T14:26:40;3.67;;;2.63;;
21754;SDS011;11039;50.028;19.938;2023-02-03T14:29:08;4.65;;;2.80;;
21754;SDS011;11039;50.028;19.938;2023-02-03T14:31:54;3.30;;;2.70;;
21754;SDS011;11039;50.028;19.938;2023-02-03T14:37:10;3.63;;;2.45;;
21754;SDS011;11039;50.028;19.938;2023-02-03T14:39:43;3.38;;;2.53;;
21754;SDS011;11039;50.028;19.938;2023-02-03T14:42:26;3.13;;;2.45;;
21754;SDS011;11039;50.028;19.938;2023-02-03T14:57:25;3.33;;;2.30;;
21754;SDS011;11039;50.028;19.938;2023-02-03T14:59:54;4.75;;;2.47;;
21754;SDS011;11039;50.028;19.938;2023-02-03T15:02:22;3.40;;;2.17;;
21754;SDS011;11039;50.028;19.938;2023-02-03T15:04:50;4.57;;;2.40;;
21754;SDS011;11039;50.028;19.938;2023-02-03T15:07:36;4.10;;;2.55;;
21754;SDS011;11039;50.028;19.938;2023-02-03T15:10:10;4.07;;;2.53;;
21754;SDS011;11039;50.028;19.938;2023-02-03T15:12:36;4.63;;;2.40;;
21754;SDS011;11039;50.028;19.938;2023-02-03T15:17:59;18.85;;;5.72;;
21754;SDS011;11039;50.028;19.938;2023-02-03T15:20:32;18.23;;;6.18;;
21754;SDS011;11039;50.028;19.938;2023-02-03T15:22:59;16.90;;;5.82;;
21754;SDS011;11039;50.028;19.938;2023-02-03T15:25:27;20.10;;;5.85;;
21754;SDS011;11039;50.028;19.938;2023-02-03T15:27:54;17.98;;;5.63;;
21754;SDS011;11039;50.028;19.938;2023-02-03T15:30:34;19.52;;;5.38;;
21754;SDS011;11039;50.028;19.938;2023-02-03T15:33:03;17.65;;;5.53;;
21754;SDS011;11039;50.028;19.938;2023-02-03T15:35:31;15.50;;;5.60;;
21754;SDS011;11039;50.028;19.938;2023-02-03T15:38:01;76.20;;;14.48;;
21754;SDS011;11039;50.028;19.938;2023-02-03T15:40:39;22.70;;;7.00;;
21754;SDS011;11039;50.028;19.938;2023-02-03T15:45:51;22.27;;;6.80;;
21754;SDS011;11039;50.028;19.938;2023-02-03T15:51:06;31.65;;;8.45;;
21754;SDS011;11039;50.028;19.938;2023-02-03T15:53:32;24.73;;;8.65;;
21754;SDS011;11039;50.028;19.938;2023-02-03T15:56:00;21.00;;;6.47;;
21754;SDS011;11039;50.028;19.938;2023-02-03T15:58:32;24.08;;;6.85;;
21754;SDS011;11039;50.028;19.938;2023-02-03T16:01:06;23.83;;;7.35;;
21754;SDS011;11039;50.028;19.938;2023-02-03T16:03:44;16.67;;;5.38;;
21754;SDS011;11039;50.028;19.938;2023-02-03T16:08:44;17.65;;;5.32;;
21754;SDS011;11039;50.028;19.938;2023-02-03T16:12:00;15.38;;;5.38;;
21754;SDS011;11039;50.028;19.938;2023-02-03T16:14:03;19.90;;;5.40;;
21754;SDS011;11039;50.028;19.938;2023-02-03T16:16:32;14.82;;;4.93;;
21754;SDS011;11039;50.028;19.938;2023-02-03T16:19:01;13.15;;;4.90;;
21754;SDS011;11039;50.028;19.938;2023-02-03T16:23:57;11.75;;;4.55;;
21754;SDS011;11039;50.028;19.938;2023-02-03T16:26:25;20.85;;;6.68;;
21754;SDS011;11039;50.028;19.938;2023-02-03T16:29:10;12.75;;;4.75;;
21754;SDS011;11039;50.028;19.938;2023-02-03T16:31:55;14.23;;;4.72;;
21754;SDS011;11039;50.028;19.938;2023-02-03T16:34:40;12.73;;;4.50;;
21754;SDS011;11039;50.028;19.938;2023-02-03T16:37:26;13.73;;;4.13;;
21754;SDS011;11039;50.028;19.938;2023-02-03T16:40:11;10.60;;;4.13;;
21754;SDS011;11039;50.028;19.938;2023-02-03T16:42:56;10.40;;;3.45;;
21754;SDS011;11039;50.028;19.938;2023-02-03T16:45:41;11.63;;;3.78;;
21754;SDS011;11039;50.028;19.938;2023-02-03T16:48:26;11.45;;;4.00;;
21754;SDS011;11039;50.028;19.938;2023-02-03T16:51:12;10.15;;;3.70;;
21754;SDS011;11039;50.028;19.938;2023-02-03T16:53:40;10.82;;;3.50;;
21754;SDS011;11039;50.028;19.938;2023-02-03T16:56:07;8.52;;;3.95;;
21754;SDS011;11039;50.028;19.938;2023-02-03T16:58:33;8.57;;;3.40;;
21754;SDS011;11039;50.028;19.938;2023-02-03T17:01:00;6.90;;;3.17;;
21754;SDS011;11039;50.028;19.938;2023-02-03T17:03:27;9.98;;;3.13;;
21754;SDS011;11039;50.028;19.938;2023-02-03T17:05:54;10.13;;;3.42;;